• Join FlightAware (Why Join?)
  • Login
  • US Flag 
03:41AM EDT


 

Airport Tracker/Info


-or-


 

Live Flight TrackerFlight Track Log ✈ N9433D ✈ 21-Jun-2013 ✈ KPHN - KSKY

Flight Track Log - Related Links

Times and Time Zones

All times are in EDT time to prevent confusion due to time zone crossing. See the N9433D flight status page for this flight to view local times or setup timezone preferences in your user account.

Time Position Orientation Groundspeed Altitude Reporting Facility
EDT Latitude Longitude Course Direction KTS MPH feet Rate Location/Type
04:58PM 42.7033 -82.5806 183° South 84 97 4,000  Level Cleveland Center
04:59PM 42.6806 -82.5800 179° South 87 100 4,000  Level Cleveland Center
05:00PM 42.6575 -82.5819 184° South 82 94 4,000  Level Cleveland Center
05:02PM 42.7736 -82.5406 184° South  Level Estimated
05:02PM 42.6326 -82.5804 177° South  Level FlightAware Approximate
05:02PM 42.6117 -82.5833 177° South 83 96 4,000  Level Cleveland Center
05:03PM 42.7540 -82.5420 183° South  Level FlightAware Approximate
05:03PM 42.5886 -82.5856 184° South 83 96 4,100  Level Cleveland Center
05:04PM 42.7343 -82.5435 183° South  Level FlightAware Approximate
05:04PM 42.5636 -82.5875 183° South 85 98 4,100  Level Cleveland Center
05:05PM 42.5406 -82.5867 178° South 85 98 4,100  Level Cleveland Center
05:06PM 42.5156 -82.5889 184° South 87 100 4,100 -60 Level Cleveland Center
05:07PM 42.4906 -82.5881 179° South 88 101 4,000  Descending Cleveland Center
05:08PM 42.4656 -82.5928 188° South 85 98 4,100  Climbing Cleveland Center
05:09PM 42.4951 -82.5716 177° South  Level FlightAware Approximate
05:09PM 42.4386 -82.5919 179° South 84 97 4,100  Level Cleveland Center
05:10PM 42.4178 -82.5914 179° South 88 101 4,100  Level Cleveland Center
05:11PM 42.3947 -82.5961 189° South 87 100 4,100  Level Cleveland Center
05:12PM 42.3694 -82.5981 183° South 85 98 4,100  Level Cleveland Center
05:13PM 42.3444 -82.6003 184° South 86 99 4,100 -60 Level Cleveland Center
05:14PM 42.3217 -82.5994 178° South 85 98 4,000 -60 Descending Cleveland Center
05:15PM 42.2986 -82.5989 179° South 86 99 4,000  Level Cleveland Center
05:16PM 42.2758 -82.6008 184° South 84 97 4,100  Climbing Cleveland Center
05:17PM 42.2506 -82.6056 188° South 86 99 4,100  Level Cleveland Center
05:19PM 42.2236 -82.6047 179° South 87 100 4,100  Level Cleveland Center
05:20PM 42.1986 -82.6039 179° South 87 100 4,100  Level Cleveland Center
05:21PM 42.1736 -82.6061 184° South 88 101 4,100  Level Cleveland Center
05:22PM 42.1525 -82.6108 189° South 87 100 4,100  Level Cleveland Center
05:23PM 42.1297 -82.6103 179° South 87 100 4,100  Level Cleveland Center
05:24PM 42.1047 -82.6122 183° South 81 93 4,100  Level Cleveland Center
05:25PM 42.0797 -82.6114 179° South 84 97 4,100  Level Cleveland Center
05:26PM 42.0567 -82.6136 184° South 87 100 4,100 -60 Level Cleveland Center
05:27PM 42.0317 -82.6128 179° South 86 99 4,000  Descending Cleveland Center
05:27PM 42.0106 -82.6175 189° South 85 98 4,100 60 Climbing Cleveland Center
05:29PM 41.9817 -82.6173 180° South  Level FlightAware Approximate
05:29PM 41.9669 -82.6217 180° South 84 97 4,200  Level Cleveland Center
05:30PM 41.9439 -82.6211 179° South 81 93 4,200  Level Cleveland Center
05:31PM 41.9189 -82.6231 183° South 84 97 4,200  Level Cleveland Center
05:32PM 41.8939 -82.6278 188° South 82 94 4,200 -240 Level Cleveland Center
05:33PM 41.8667 -82.6269 179° South 91 105 3,800 -360 Descending Cleveland Center
05:34PM 41.8417 -82.6261 179° South 96 110 3,500 -240 Descending Cleveland Center
05:35PM 41.8189 -82.6172 164° South 91 105 3,400 -180 Descending Cleveland Center
05:36PM 41.7942 -82.6081 165° South 89 102 3,200 -120 Descending Cleveland Center
05:37PM 41.7692 -82.6017 169° South 89 102 3,200  Level Cleveland Center
05:38PM 41.7422 -82.5925 166° South 88 101 3,200  Level Cleveland Center
05:39PM 41.7194 -82.5806 159° South 88 101 3,200  Level Cleveland Center
05:40PM 41.6967 -82.5742 168° South 88 101 3,200  Level Cleveland Center
05:41PM 41.6717 -82.5792 188° South 90 104 3,200 -60 Level Cleveland Center
05:42PM 41.6464 -82.5894 197° South 91 105 3,100  Descending Cleveland Center
05:44PM 41.6214 -82.5942 188° South 90 104 3,200  Climbing Cleveland Center
05:45PM 41.5942 -82.5989 187° South 90 104 3,100 -120 Descending Cleveland Center